sensor_id;sensor_type;location;lat;lon;timestamp;P1;durP1;ratioP1;P2;durP2;ratioP2
59306;SDS011;47983;53.016;-2.260;2023-04-25T00:02:22;8.65;;;2.22;;
59306;SDS011;47983;53.016;-2.260;2023-04-25T00:04:56;10.13;;;2.47;;
59306;SDS011;47983;53.016;-2.260;2023-04-25T00:07:29;8.95;;;2.10;;
59306;SDS011;47983;53.016;-2.260;2023-04-25T00:10:01;8.02;;;2.22;;
59306;SDS011;47983;53.016;-2.260;2023-04-25T00:12:30;7.72;;;1.70;;
59306;SDS011;47983;53.016;-2.260;2023-04-25T00:14:59;3.45;;;1.80;;
59306;SDS011;47983;53.016;-2.260;2023-04-25T00:17:27;10.35;;;2.22;;
59306;SDS011;47983;53.016;-2.260;2023-04-25T00:19:57;10.18;;;1.95;;
59306;SDS011;47983;53.016;-2.260;2023-04-25T00:22:25;7.95;;;1.60;;
59306;SDS011;47983;53.016;-2.260;2023-04-25T00:24:56;6.78;;;2.22;;
59306;SDS011;47983;53.016;-2.260;2023-04-25T00:27:30;9.27;;;2.00;;
59306;SDS011;47983;53.016;-2.260;2023-04-25T00:29:58;4.78;;;1.70;;
59306;SDS011;47983;53.016;-2.260;2023-04-25T00:32:30;5.28;;;1.77;;
59306;SDS011;47983;53.016;-2.260;2023-04-25T00:35:02;5.20;;;1.65;;
59306;SDS011;47983;53.016;-2.260;2023-04-25T00:37:31;12.00;;;1.50;;
59306;SDS011;47983;53.016;-2.260;2023-04-25T00:39:59;10.70;;;1.52;;
59306;SDS011;47983;53.016;-2.260;2023-04-25T00:42:27;7.55;;;2.00;;
59306;SDS011;47983;53.016;-2.260;2023-04-25T00:44:59;6.95;;;1.70;;
59306;SDS011;47983;53.016;-2.260;2023-04-25T00:47:32;4.55;;;1.33;;
59306;SDS011;47983;53.016;-2.260;2023-04-25T00:50:05;8.07;;;1.77;;
59306;SDS011;47983;53.016;-2.260;2023-04-25T00:52:33;4.55;;;1.45;;
59306;SDS011;47983;53.016;-2.260;2023-04-25T00:55:02;6.15;;;1.75;;
59306;SDS011;47983;53.016;-2.260;2023-04-25T00:57:30;8.15;;;1.33;;
59306;SDS011;47983;53.016;-2.260;2023-04-25T00:59:58;8.07;;;1.33;;
59306;SDS011;47983;53.016;-2.260;2023-04-25T01:02:27;7.85;;;1.73;;
59306;SDS011;47983;53.016;-2.260;2023-04-25T01:04:59;3.63;;;1.60;;
59306;SDS011;47983;53.016;-2.260;2023-04-25T01:07:27;9.55;;;1.52;;
59306;SDS011;47983;53.016;-2.260;2023-04-25T01:10:00;10.25;;;1.40;;
59306;SDS011;47983;53.016;-2.260;2023-04-25T01:12:32;5.13;;;1.50;;
59306;SDS011;47983;53.016;-2.260;2023-04-25T01:15:02;10.00;;;1.70;;
59306;SDS011;47983;53.016;-2.260;2023-04-25T01:17:31;6.28;;;1.50;;
59306;SDS011;47983;53.016;-2.260;2023-04-25T01:20:08;7.97;;;1.55;;
59306;SDS011;47983;53.016;-2.260;2023-04-25T01:22:42;4.03;;;1.10;;
59306;SDS011;47983;53.016;-2.260;2023-04-25T01:25:11;8.00;;;1.70;;
59306;SDS011;47983;53.016;-2.260;2023-04-25T01:27:39;12.07;;;2.33;;
59306;SDS011;47983;53.016;-2.260;2023-04-25T01:30:11;6.90;;;2.53;;
59306;SDS011;47983;53.016;-2.260;2023-04-25T01:35:20;9.80;;;1.38;;
59306;SDS011;47983;53.016;-2.260;2023-04-25T01:37:53;9.63;;;1.48;;
59306;SDS011;47983;53.016;-2.260;2023-04-25T01:40:21;3.13;;;1.52;;
59306;SDS011;47983;53.016;-2.260;2023-04-25T01:42:50;4.25;;;1.00;;
59306;SDS011;47983;53.016;-2.260;2023-04-25T01:45:23;8.25;;;1.73;;
59306;SDS011;47983;53.016;-2.260;2023-04-25T01:47:53;10.18;;;1.35;;
59306;SDS011;47983;53.016;-2.260;2023-04-25T01:50:21;6.65;;;1.67;;
59306;SDS011;47983;53.016;-2.260;2023-04-25T01:52:49;17.42;;;2.38;;
59306;SDS011;47983;53.016;-2.260;2023-04-25T01:55:19;3.13;;;1.17;;
59306;SDS011;47983;53.016;-2.260;2023-04-25T01:58:02;6.18;;;1.70;;
59306;SDS011;47983;53.016;-2.260;2023-04-25T02:00:51;6.40;;;1.50;;
59306;SDS011;47983;53.016;-2.260;2023-04-25T02:03:20;11.23;;;1.90;;
59306;SDS011;47983;53.016;-2.260;2023-04-25T02:05:48;3.17;;;1.25;;
59306;SDS011;47983;53.016;-2.260;2023-04-25T02:08:17;4.75;;;1.58;;
59306;SDS011;47983;53.016;-2.260;2023-04-25T02:10:45;13.47;;;2.20;;
59306;SDS011;47983;53.016;-2.260;2023-04-25T02:13:18;12.55;;;1.67;;
59306;SDS011;47983;53.016;-2.260;2023-04-25T02:16:00;7.97;;;1.80;;
59306;SDS011;47983;53.016;-2.260;2023-04-25T02:18:29;10.68;;;1.73;;
59306;SDS011;47983;53.016;-2.260;2023-04-25T02:21:00;4.45;;;1.30;;
59306;SDS011;47983;53.016;-2.260;2023-04-25T02:23:28;8.30;;;1.50;;
59306;SDS011;47983;53.016;-2.260;2023-04-25T02:25:59;8.25;;;1.20;;
59306;SDS011;47983;53.016;-2.260;2023-04-25T02:28:27;6.72;;;1.70;;
59306;SDS011;47983;53.016;-2.260;2023-04-25T02:30:54;8.35;;;1.52;;
59306;SDS011;47983;53.016;-2.260;2023-04-25T02:33:24;9.80;;;2.17;;
59306;SDS011;47983;53.016;-2.260;2023-04-25T02:35:51;5.97;;;1.95;;
59306;SDS011;47983;53.016;-2.260;2023-04-25T02:38:21;5.40;;;1.20;;
59306;SDS011;47983;53.016;-2.260;2023-04-25T02:40:49;7.90;;;1.90;;
59306;SDS011;47983;53.016;-2.260;2023-04-25T02:43:17;2.22;;;1.55;;
59306;SDS011;47983;53.016;-2.260;2023-04-25T02:45:45;4.18;;;1.42;;
59306;SDS011;47983;53.016;-2.260;2023-04-25T02:48:12;3.90;;;1.10;;
59306;SDS011;47983;53.016;-2.260;2023-04-25T02:50:43;7.72;;;1.60;;
59306;SDS011;47983;53.016;-2.260;2023-04-25T02:53:11;12.82;;;1.88;;
59306;SDS011;47983;53.016;-2.260;2023-04-25T02:55:45;7.40;;;1.73;;
59306;SDS011;47983;53.016;-2.260;2023-04-25T02:58:18;5.78;;;1.67;;
59306;SDS011;47983;53.016;-2.260;2023-04-25T03:00:49;11.23;;;1.73;;
59306;SDS011;47983;53.016;-2.260;2023-04-25T03:03:17;5.93;;;1.33;;
59306;SDS011;47983;53.016;-2.260;2023-04-25T03:05:50;3.58;;;1.25;;
59306;SDS011;47983;53.016;-2.260;2023-04-25T03:08:26;5.07;;;1.60;;
59306;SDS011;47983;53.016;-2.260;2023-04-25T03:11:00;7.78;;;1.63;;
59306;SDS011;47983;53.016;-2.260;2023-04-25T03:13:28;2.72;;;0.95;;
59306;SDS011;47983;53.016;-2.260;2023-04-25T03:15:57;9.82;;;1.40;;
59306;SDS011;47983;53.016;-2.260;2023-04-25T03:18:25;5.80;;;1.60;;
59306;SDS011;47983;53.016;-2.260;2023-04-25T03:20:56;9.63;;;1.73;;
59306;SDS011;47983;53.016;-2.260;2023-04-25T03:23:24;10.63;;;2.08;;
59306;SDS011;47983;53.016;-2.260;2023-04-25T03:25:52;8.23;;;1.90;;
59306;SDS011;47983;53.016;-2.260;2023-04-25T03:28:19;6.82;;;2.55;;
59306;SDS011;47983;53.016;-2.260;2023-04-25T03:30:51;17.27;;;3.08;;
59306;SDS011;47983;53.016;-2.260;2023-04-25T03:33:19;8.32;;;2.38;;
59306;SDS011;47983;53.016;-2.260;2023-04-25T03:40:47;7.20;;;1.85;;
59306;SDS011;47983;53.016;-2.260;2023-04-25T03:43:21;5.80;;;1.88;;
59306;SDS011;47983;53.016;-2.260;2023-04-25T03:45:56;15.52;;;2.10;;
59306;SDS011;47983;53.016;-2.260;2023-04-25T03:48:25;8.05;;;2.03;;
59306;SDS011;47983;53.016;-2.260;2023-04-25T03:50:54;8.02;;;2.10;;
59306;SDS011;47983;53.016;-2.260;2023-04-25T03:53:22;8.98;;;1.50;;
59306;SDS011;47983;53.016;-2.260;2023-04-25T03:56:20;6.30;;;1.50;;
59306;SDS011;47983;53.016;-2.260;2023-04-25T03:58:55;8.18;;;1.52;;
59306;SDS011;47983;53.016;-2.260;2023-04-25T04:01:28;6.13;;;1.33;;
59306;SDS011;47983;53.016;-2.260;2023-04-25T04:03:57;6.13;;;1.42;;
59306;SDS011;47983;53.016;-2.260;2023-04-25T04:06:26;6.47;;;2.03;;
59306;SDS011;47983;53.016;-2.260;2023-04-25T04:09:02;3.70;;;2.00;;
59306;SDS011;47983;53.016;-2.260;2023-04-25T04:11:34;6.60;;;2.00;;
59306;SDS011;47983;53.016;-2.260;2023-04-25T04:14:07;5.90;;;2.00;;
59306;SDS011;47983;53.016;-2.260;2023-04-25T04:16:41;3.10;;;1.42;;
59306;SDS011;47983;53.016;-2.260;2023-04-25T04:19:09;4.50;;;1.50;;
59306;SDS011;47983;53.016;-2.260;2023-04-25T04:21:42;7.13;;;1.80;;
59306;SDS011;47983;53.016;-2.260;2023-04-25T04:24:10;7.25;;;1.98;;
59306;SDS011;47983;53.016;-2.260;2023-04-25T04:26:49;8.82;;;1.92;;
59306;SDS011;47983;53.016;-2.260;2023-04-25T04:29:35;5.63;;;1.85;;
59306;SDS011;47983;53.016;-2.260;2023-04-25T04:32:23;11.20;;;1.90;;
59306;SDS011;47983;53.016;-2.260;2023-04-25T04:34:53;6.15;;;1.40;;
59306;SDS011;47983;53.016;-2.260;2023-04-25T04:37:25;3.63;;;2.17;;
59306;SDS011;47983;53.016;-2.260;2023-04-25T04:39:53;6.57;;;1.80;;
59306;SDS011;47983;53.016;-2.260;2023-04-25T04:42:39;6.13;;;1.80;;
59306;SDS011;47983;53.016;-2.260;2023-04-25T04:45:46;7.88;;;1.98;;
59306;SDS011;47983;53.016;-2.260;2023-04-25T04:48:43;10.48;;;1.83;;
59306;SDS011;47983;53.016;-2.260;2023-04-25T04:51:45;20.50;;;2.33;;
59306;SDS011;47983;53.016;-2.260;2023-04-25T04:54:31;5.45;;;1.85;;
59306;SDS011;47983;53.016;-2.260;2023-04-25T04:57:19;5.35;;;1.92;;
59306;SDS011;47983;53.016;-2.260;2023-04-25T05:02:40;11.27;;;2.30;;
59306;SDS011;47983;53.016;-2.260;2023-04-25T05:05:34;7.28;;;1.73;;
59306;SDS011;47983;53.016;-2.260;2023-04-25T05:08:14;6.35;;;1.85;;
59306;SDS011;47983;53.016;-2.260;2023-04-25T05:11:14;9.07;;;2.15;;
59306;SDS011;47983;53.016;-2.260;2023-04-25T05:14:06;7.50;;;2.30;;
59306;SDS011;47983;53.016;-2.260;2023-04-25T05:16:56;8.73;;;2.35;;
59306;SDS011;47983;53.016;-2.260;2023-04-25T05:19:50;3.85;;;1.83;;
59306;SDS011;47983;53.016;-2.260;2023-04-25T05:22:44;8.68;;;1.98;;
59306;SDS011;47983;53.016;-2.260;2023-04-25T05:25:19;5.82;;;1.45;;
59306;SDS011;47983;53.016;-2.260;2023-04-25T05:28:05;9.55;;;1.85;;
59306;SDS011;47983;53.016;-2.260;2023-04-25T05:31:11;12.48;;;2.55;;
59306;SDS011;47983;53.016;-2.260;2023-04-25T05:33:53;12.00;;;1.95;;
59306;SDS011;47983;53.016;-2.260;2023-04-25T05:36:24;6.35;;;1.90;;
59306;SDS011;47983;53.016;-2.260;2023-04-25T05:38:53;13.80;;;2.08;;
59306;SDS011;47983;53.016;-2.260;2023-04-25T05:41:21;10.27;;;2.05;;
59306;SDS011;47983;53.016;-2.260;2023-04-25T05:44:09;10.60;;;2.57;;
59306;SDS011;47983;53.016;-2.260;2023-04-25T05:46:58;4.72;;;2.00;;
59306;SDS011;47983;53.016;-2.260;2023-04-25T05:49:44;11.38;;;3.20;;
59306;SDS011;47983;53.016;-2.260;2023-04-25T05:52:23;11.63;;;3.60;;
59306;SDS011;47983;53.016;-2.260;2023-04-25T05:55:10;8.45;;;2.78;;
59306;SDS011;47983;53.016;-2.260;2023-04-25T05:57:39;9.57;;;2.05;;
59306;SDS011;47983;53.016;-2.260;2023-04-25T06:00:17;13.00;;;3.38;;
59306;SDS011;47983;53.016;-2.260;2023-04-25T06:02:48;6.82;;;2.30;;
59306;SDS011;47983;53.016;-2.260;2023-04-25T06:05:20;13.10;;;2.97;;
59306;SDS011;47983;53.016;-2.260;2023-04-25T06:07:48;11.93;;;3.80;;
59306;SDS011;47983;53.016;-2.260;2023-04-25T06:10:19;8.68;;;2.78;;
59306;SDS011;47983;53.016;-2.260;2023-04-25T06:12:47;10.13;;;3.63;;
59306;SDS011;47983;53.016;-2.260;2023-04-25T06:15:19;21.05;;;4.40;;
59306;SDS011;47983;53.016;-2.260;2023-04-25T06:17:49;14.10;;;3.40;;
59306;SDS011;47983;53.016;-2.260;2023-04-25T06:20:17;12.68;;;3.35;;
59306;SDS011;47983;53.016;-2.260;2023-04-25T06:22:46;10.20;;;3.42;;
59306;SDS011;47983;53.016;-2.260;2023-04-25T06:25:15;9.95;;;2.90;;
59306;SDS011;47983;53.016;-2.260;2023-04-25T06:27:46;11.73;;;3.45;;
59306;SDS011;47983;53.016;-2.260;2023-04-25T06:30:15;14.23;;;2.85;;
59306;SDS011;47983;53.016;-2.260;2023-04-25T06:32:45;10.65;;;3.15;;
59306;SDS011;47983;53.016;-2.260;2023-04-25T06:35:13;13.65;;;2.53;;
59306;SDS011;47983;53.016;-2.260;2023-04-25T06:37:41;10.23;;;2.60;;
59306;SDS011;47983;53.016;-2.260;2023-04-25T06:40:09;11.13;;;2.78;;
59306;SDS011;47983;53.016;-2.260;2023-04-25T06:42:37;7.95;;;2.85;;
59306;SDS011;47983;53.016;-2.260;2023-04-25T06:45:28;7.28;;;2.70;;
59306;SDS011;47983;53.016;-2.260;2023-04-25T06:47:56;10.45;;;2.92;;
59306;SDS011;47983;53.016;-2.260;2023-04-25T06:50:24;6.70;;;2.65;;
59306;SDS011;47983;53.016;-2.260;2023-04-25T06:52:55;9.10;;;2.60;;
59306;SDS011;47983;53.016;-2.260;2023-04-25T06:55:26;8.00;;;2.22;;
59306;SDS011;47983;53.016;-2.260;2023-04-25T06:58:17;5.63;;;1.77;;
59306;SDS011;47983;53.016;-2.260;2023-04-25T07:00:54;9.23;;;1.77;;
59306;SDS011;47983;53.016;-2.260;2023-04-25T07:03:25;4.72;;;1.25;;
59306;SDS011;47983;53.016;-2.260;2023-04-25T07:06:09;11.95;;;2.08;;
59306;SDS011;47983;53.016;-2.260;2023-04-25T07:08:38;15.38;;;3.40;;
59306;SDS011;47983;53.016;-2.260;2023-04-25T07:11:13;8.25;;;1.65;;
59306;SDS011;47983;53.016;-2.260;2023-04-25T07:13:55;2.53;;;0.80;;
59306;SDS011;47983;53.016;-2.260;2023-04-25T07:16:24;5.68;;;1.25;;
59306;SDS011;47983;53.016;-2.260;2023-04-25T07:18:52;4.25;;;0.82;;
59306;SDS011;47983;53.016;-2.260;2023-04-25T07:21:20;3.83;;;1.48;;
59306;SDS011;47983;53.016;-2.260;2023-04-25T07:23:55;5.28;;;1.52;;
59306;SDS011;47983;53.016;-2.260;2023-04-25T07:26:28;8.05;;;1.13;;
59306;SDS011;47983;53.016;-2.260;2023-04-25T07:29:14;4.03;;;1.27;;
59306;SDS011;47983;53.016;-2.260;2023-04-25T07:31:45;10.20;;;2.25;;
59306;SDS011;47983;53.016;-2.260;2023-04-25T07:34:12;3.63;;;1.20;;
59306;SDS011;47983;53.016;-2.260;2023-04-25T07:36:40;6.15;;;1.88;;
59306;SDS011;47983;53.016;-2.260;2023-04-25T07:39:08;5.65;;;1.63;;
59306;SDS011;47983;53.016;-2.260;2023-04-25T07:41:36;10.98;;;1.52;;
59306;SDS011;47983;53.016;-2.260;2023-04-25T07:44:05;4.95;;;1.48;;
59306;SDS011;47983;53.016;-2.260;2023-04-25T07:46:34;4.13;;;1.20;;
59306;SDS011;47983;53.016;-2.260;2023-04-25T07:49:04;4.78;;;1.33;;
59306;SDS011;47983;53.016;-2.260;2023-04-25T07:51:32;5.70;;;1.42;;
59306;SDS011;47983;53.016;-2.260;2023-04-25T07:54:06;9.07;;;1.38;;
59306;SDS011;47983;53.016;-2.260;2023-04-25T07:56:36;9.13;;;1.45;;
59306;SDS011;47983;53.016;-2.260;2023-04-25T07:59:19;5.68;;;1.70;;
59306;SDS011;47983;53.016;-2.260;2023-04-25T08:01:47;14.07;;;2.47;;
59306;SDS011;47983;53.016;-2.260;2023-04-25T08:04:16;7.43;;;1.60;;
59306;SDS011;47983;53.016;-2.260;2023-04-25T08:06:52;11.75;;;1.73;;
59306;SDS011;47983;53.016;-2.260;2023-04-25T08:09:26;4.93;;;1.42;;
59306;SDS011;47983;53.016;-2.260;2023-04-25T08:11:56;4.72;;;1.20;;
59306;SDS011;47983;53.016;-2.260;2023-04-25T08:14:28;8.45;;;1.65;;
59306;SDS011;47983;53.016;-2.260;2023-04-25T08:17:03;8.20;;;1.75;;
59306;SDS011;47983;53.016;-2.260;2023-04-25T08:22:01;10.23;;;1.40;;
59306;SDS011;47983;53.016;-2.260;2023-04-25T08:24:41;6.78;;;1.65;;
59306;SDS011;47983;53.016;-2.260;2023-04-25T08:27:09;12.45;;;1.52;;
59306;SDS011;47983;53.016;-2.260;2023-04-25T08:29:37;4.55;;;1.15;;
59306;SDS011;47983;53.016;-2.260;2023-04-25T08:32:05;2.03;;;0.70;;
59306;SDS011;47983;53.016;-2.260;2023-04-25T08:34:35;2.30;;;0.75;;
59306;SDS011;47983;53.016;-2.260;2023-04-25T08:37:04;5.63;;;1.38;;
59306;SDS011;47983;53.016;-2.260;2023-04-25T08:39:40;15.23;;;2.70;;
59306;SDS011;47983;53.016;-2.260;2023-04-25T08:42:27;6.47;;;1.40;;
59306;SDS011;47983;53.016;-2.260;2023-04-25T08:44:58;10.32;;;1.23;;
59306;SDS011;47983;53.016;-2.260;2023-04-25T08:47:34;3.72;;;1.00;;
59306;SDS011;47983;53.016;-2.260;2023-04-25T08:50:05;2.10;;;0.90;;
59306;SDS011;47983;53.016;-2.260;2023-04-25T08:52:39;5.80;;;1.33;;
59306;SDS011;47983;53.016;-2.260;2023-04-25T08:55:14;2.15;;;0.60;;
59306;SDS011;47983;53.016;-2.260;2023-04-25T08:57:43;1.42;;;1.13;;
59306;SDS011;47983;53.016;-2.260;2023-04-25T09:00:12;7.63;;;0.83;;
59306;SDS011;47983;53.016;-2.260;2023-04-25T09:02:43;6.35;;;1.08;;
59306;SDS011;47983;53.016;-2.260;2023-04-25T09:05:12;5.00;;;0.70;;
59306;SDS011;47983;53.016;-2.260;2023-04-25T09:07:41;4.10;;;1.00;;
59306;SDS011;47983;53.016;-2.260;2023-04-25T09:10:09;5.13;;;0.80;;
59306;SDS011;47983;53.016;-2.260;2023-04-25T09:12:38;10.30;;;1.52;;
59306;SDS011;47983;53.016;-2.260;2023-04-25T09:15:11;2.28;;;0.75;;
59306;SDS011;47983;53.016;-2.260;2023-04-25T09:17:59;5.28;;;1.10;;
59306;SDS011;47983;53.016;-2.260;2023-04-25T09:20:32;0.95;;;0.50;;
59306;SDS011;47983;53.016;-2.260;2023-04-25T09:23:14;4.72;;;0.98;;
59306;SDS011;47983;53.016;-2.260;2023-04-25T09:25:42;3.95;;;1.02;;
59306;SDS011;47983;53.016;-2.260;2023-04-25T09:28:10;3.08;;;0.77;;
59306;SDS011;47983;53.016;-2.260;2023-04-25T09:30:38;3.15;;;0.88;;
59306;SDS011;47983;53.016;-2.260;2023-04-25T09:33:12;4.35;;;0.85;;
59306;SDS011;47983;53.016;-2.260;2023-04-25T09:35:48;3.33;;;0.98;;
59306;SDS011;47983;53.016;-2.260;2023-04-25T09:38:43;2.60;;;0.93;;
59306;SDS011;47983;53.016;-2.260;2023-04-25T09:41:28;5.47;;;0.77;;
59306;SDS011;47983;53.016;-2.260;2023-04-25T09:44:00;2.67;;;0.80;;
59306;SDS011;47983;53.016;-2.260;2023-04-25T09:46:33;1.98;;;0.80;;
59306;SDS011;47983;53.016;-2.260;2023-04-25T09:49:07;3.97;;;1.30;;
59306;SDS011;47983;53.016;-2.260;2023-04-25T09:51:53;3.88;;;1.05;;
59306;SDS011;47983;53.016;-2.260;2023-04-25T09:54:28;5.28;;;0.90;;
59306;SDS011;47983;53.016;-2.260;2023-04-25T09:57:10;4.93;;;0.90;;
59306;SDS011;47983;53.016;-2.260;2023-04-25T09:59:44;3.47;;;1.55;;
59306;SDS011;47983;53.016;-2.260;2023-04-25T10:02:16;3.83;;;1.13;;
59306;SDS011;47983;53.016;-2.260;2023-04-25T10:04:52;3.42;;;1.10;;
59306;SDS011;47983;53.016;-2.260;2023-04-25T10:07:36;4.40;;;1.00;;
59306;SDS011;47983;53.016;-2.260;2023-04-25T10:10:09;2.08;;;0.93;;
59306;SDS011;47983;53.016;-2.260;2023-04-25T10:12:39;7.68;;;1.30;;
59306;SDS011;47983;53.016;-2.260;2023-04-25T10:15:09;4.72;;;1.17;;
59306;SDS011;47983;53.016;-2.260;2023-04-25T10:17:38;5.65;;;1.52;;
59306;SDS011;47983;53.016;-2.260;2023-04-25T10:20:07;3.17;;;1.15;;
59306;SDS011;47983;53.016;-2.260;2023-04-25T10:22:39;15.60;;;1.10;;
59306;SDS011;47983;53.016;-2.260;2023-04-25T10:25:10;4.28;;;1.38;;
59306;SDS011;47983;53.016;-2.260;2023-04-25T10:27:39;2.70;;;0.80;;
59306;SDS011;47983;53.016;-2.260;2023-04-25T10:30:09;1.90;;;1.00;;
59306;SDS011;47983;53.016;-2.260;2023-04-25T10:32:42;6.22;;;2.20;;
59306;SDS011;47983;53.016;-2.260;2023-04-25T10:40:32;2.92;;;0.90;;
59306;SDS011;47983;53.016;-2.260;2023-04-25T10:46:00;5.20;;;1.20;;
59306;SDS011;47983;53.016;-2.260;2023-04-25T10:48:28;2.70;;;1.17;;
59306;SDS011;47983;53.016;-2.260;2023-04-25T10:51:09;3.83;;;1.63;;
59306;SDS011;47983;53.016;-2.260;2023-04-25T10:54:17;3.30;;;1.73;;
59306;SDS011;47983;53.016;-2.260;2023-04-25T10:56:45;4.90;;;1.00;;
59306;SDS011;47983;53.016;-2.260;2023-04-25T10:59:13;4.13;;;1.17;;
59306;SDS011;47983;53.016;-2.260;2023-04-25T11:01:43;4.72;;;0.85;;
59306;SDS011;47983;53.016;-2.260;2023-04-25T11:04:22;6.40;;;1.38;;
59306;SDS011;47983;53.016;-2.260;2023-04-25T11:09:38;7.20;;;1.70;;
59306;SDS011;47983;53.016;-2.260;2023-04-25T11:12:08;3.47;;;1.20;;
59306;SDS011;47983;53.016;-2.260;2023-04-25T11:14:36;6.72;;;1.15;;
59306;SDS011;47983;53.016;-2.260;2023-04-25T11:17:04;4.32;;;1.13;;
59306;SDS011;47983;53.016;-2.260;2023-04-25T11:19:32;5.07;;;1.20;;
59306;SDS011;47983;53.016;-2.260;2023-04-25T11:22:00;2.55;;;1.60;;
59306;SDS011;47983;53.016;-2.260;2023-04-25T11:26:59;9.40;;;1.45;;
59306;SDS011;47983;53.016;-2.260;2023-04-25T11:29:32;4.45;;;1.35;;
59306;SDS011;47983;53.016;-2.260;2023-04-25T11:32:00;5.63;;;1.80;;
59306;SDS011;47983;53.016;-2.260;2023-04-25T11:34:30;6.22;;;1.95;;
59306;SDS011;47983;53.016;-2.260;2023-04-25T11:37:03;3.17;;;1.45;;
59306;SDS011;47983;53.016;-2.260;2023-04-25T11:39:31;2.67;;;1.15;;
59306;SDS011;47983;53.016;-2.260;2023-04-25T11:41:58;5.30;;;1.80;;
59306;SDS011;47983;53.016;-2.260;2023-04-25T11:44:31;17.27;;;2.33;;
59306;SDS011;47983;53.016;-2.260;2023-04-25T11:46:58;8.60;;;1.55;;
59306;SDS011;47983;53.016;-2.260;2023-04-25T11:49:30;3.80;;;1.80;;
59306;SDS011;47983;53.016;-2.260;2023-04-25T11:51:58;10.13;;;3.85;;
59306;SDS011;47983;53.016;-2.260;2023-04-25T11:54:26;6.43;;;2.20;;
59306;SDS011;47983;53.016;-2.260;2023-04-25T11:56:54;4.57;;;1.35;;
59306;SDS011;47983;53.016;-2.260;2023-04-25T11:59:25;4.97;;;1.60;;
59306;SDS011;47983;53.016;-2.260;2023-04-25T12:01:56;4.88;;;1.90;;
59306;SDS011;47983;53.016;-2.260;2023-04-25T12:04:24;4.10;;;1.73;;
59306;SDS011;47983;53.016;-2.260;2023-04-25T12:06:54;5.53;;;1.85;;
59306;SDS011;47983;53.016;-2.260;2023-04-25T12:09:30;4.32;;;1.88;;
59306;SDS011;47983;53.016;-2.260;2023-04-25T12:11:59;8.30;;;2.60;;
59306;SDS011;47983;53.016;-2.260;2023-04-25T12:14:31;4.85;;;2.10;;
59306;SDS011;47983;53.016;-2.260;2023-04-25T12:17:02;7.05;;;2.17;;
59306;SDS011;47983;53.016;-2.260;2023-04-25T12:19:32;4.32;;;1.90;;
59306;SDS011;47983;53.016;-2.260;2023-04-25T12:22:01;5.93;;;2.60;;
59306;SDS011;47983;53.016;-2.260;2023-04-25T12:24:33;5.45;;;2.40;;
59306;SDS011;47983;53.016;-2.260;2023-04-25T12:27:05;8.68;;;1.80;;
59306;SDS011;47983;53.016;-2.260;2023-04-25T12:29:37;5.75;;;2.10;;
59306;SDS011;47983;53.016;-2.260;2023-04-25T12:32:16;9.82;;;1.80;;
59306;SDS011;47983;53.016;-2.260;2023-04-25T12:34:44;6.30;;;2.13;;
59306;SDS011;47983;53.016;-2.260;2023-04-25T12:37:12;3.90;;;2.10;;
59306;SDS011;47983;53.016;-2.260;2023-04-25T12:39:40;3.85;;;2.20;;
59306;SDS011;47983;53.016;-2.260;2023-04-25T12:42:08;6.53;;;2.40;;
59306;SDS011;47983;53.016;-2.260;2023-04-25T12:44:39;5.50;;;2.25;;
59306;SDS011;47983;53.016;-2.260;2023-04-25T12:47:07;5.70;;;2.00;;
59306;SDS011;47983;53.016;-2.260;2023-04-25T12:49:35;3.97;;;2.33;;
59306;SDS011;47983;53.016;-2.260;2023-04-25T12:52:03;3.67;;;1.75;;
59306;SDS011;47983;53.016;-2.260;2023-04-25T12:54:31;5.45;;;2.70;;
59306;SDS011;47983;53.016;-2.260;2023-04-25T12:56:58;11.90;;;2.78;;
59306;SDS011;47983;53.016;-2.260;2023-04-25T12:59:26;8.35;;;2.15;;
59306;SDS011;47983;53.016;-2.260;2023-04-25T13:01:55;5.53;;;2.88;;
59306;SDS011;47983;53.016;-2.260;2023-04-25T13:04:23;7.20;;;2.85;;
59306;SDS011;47983;53.016;-2.260;2023-04-25T13:06:50;2.65;;;2.00;;
59306;SDS011;47983;53.016;-2.260;2023-04-25T13:09:18;6.07;;;2.75;;
59306;SDS011;47983;53.016;-2.260;2023-04-25T13:11:46;7.75;;;2.78;;
59306;SDS011;47983;53.016;-2.260;2023-04-25T13:14:15;4.13;;;2.28;;
59306;SDS011;47983;53.016;-2.260;2023-04-25T13:16:46;7.43;;;2.85;;
59306;SDS011;47983;53.016;-2.260;2023-04-25T13:19:14;5.05;;;2.40;;
59306;SDS011;47983;53.016;-2.260;2023-04-25T13:21:45;6.72;;;2.50;;
59306;SDS011;47983;53.016;-2.260;2023-04-25T13:24:12;6.72;;;2.70;;
59306;SDS011;47983;53.016;-2.260;2023-04-25T13:26:40;6.70;;;2.85;;
59306;SDS011;47983;53.016;-2.260;2023-04-25T13:29:07;6.93;;;2.47;;
59306;SDS011;47983;53.016;-2.260;2023-04-25T13:31:35;4.32;;;2.15;;
59306;SDS011;47983;53.016;-2.260;2023-04-25T13:34:03;7.35;;;2.60;;
59306;SDS011;47983;53.016;-2.260;2023-04-25T13:36:31;6.72;;;2.60;;
59306;SDS011;47983;53.016;-2.260;2023-04-25T13:38:58;7.65;;;2.60;;
59306;SDS011;47983;53.016;-2.260;2023-04-25T13:41:26;8.05;;;2.40;;
59306;SDS011;47983;53.016;-2.260;2023-04-25T13:43:54;7.97;;;2.45;;
59306;SDS011;47983;53.016;-2.260;2023-04-25T13:46:22;4.47;;;2.05;;
59306;SDS011;47983;53.016;-2.260;2023-04-25T13:49:09;7.55;;;2.88;;
59306;SDS011;47983;53.016;-2.260;2023-04-25T13:51:39;5.60;;;2.72;;
59306;SDS011;47983;53.016;-2.260;2023-04-25T13:54:07;8.00;;;2.33;;
59306;SDS011;47983;53.016;-2.260;2023-04-25T13:56:35;4.18;;;2.70;;
59306;SDS011;47983;53.016;-2.260;2023-04-25T13:59:03;6.60;;;2.50;;
59306;SDS011;47983;53.016;-2.260;2023-04-25T14:01:31;8.63;;;2.63;;
59306;SDS011;47983;53.016;-2.260;2023-04-25T14:04:01;4.07;;;2.70;;
59306;SDS011;47983;53.016;-2.260;2023-04-25T14:06:31;3.88;;;2.50;;
59306;SDS011;47983;53.016;-2.260;2023-04-25T14:09:00;6.85;;;3.13;;
59306;SDS011;47983;53.016;-2.260;2023-04-25T14:11:28;5.63;;;3.00;;
59306;SDS011;47983;53.016;-2.260;2023-04-25T14:13:55;6.60;;;2.53;;
59306;SDS011;47983;53.016;-2.260;2023-04-25T14:16:23;7.30;;;3.08;;
59306;SDS011;47983;53.016;-2.260;2023-04-25T14:18:52;7.22;;;2.78;;
59306;SDS011;47983;53.016;-2.260;2023-04-25T14:21:21;4.40;;;2.97;;
59306;SDS011;47983;53.016;-2.260;2023-04-25T14:23:49;7.80;;;3.10;;
59306;SDS011;47983;53.016;-2.260;2023-04-25T14:26:16;3.42;;;2.50;;
59306;SDS011;47983;53.016;-2.260;2023-04-25T14:28:44;6.70;;;3.05;;
59306;SDS011;47983;53.016;-2.260;2023-04-25T14:31:12;10.18;;;3.45;;
59306;SDS011;47983;53.016;-2.260;2023-04-25T14:33:40;8.85;;;2.92;;
59306;SDS011;47983;53.016;-2.260;2023-04-25T14:36:09;6.47;;;2.90;;
59306;SDS011;47983;53.016;-2.260;2023-04-25T14:38:38;5.95;;;3.00;;
59306;SDS011;47983;53.016;-2.260;2023-04-25T14:41:05;5.03;;;2.78;;
59306;SDS011;47983;53.016;-2.260;2023-04-25T14:43:33;8.60;;;2.65;;
59306;SDS011;47983;53.016;-2.260;2023-04-25T14:46:01;7.60;;;3.58;;
59306;SDS011;47983;53.016;-2.260;2023-04-25T14:48:29;6.82;;;3.10;;
59306;SDS011;47983;53.016;-2.260;2023-04-25T14:50:57;9.75;;;2.75;;
59306;SDS011;47983;53.016;-2.260;2023-04-25T14:53:27;10.05;;;3.60;;
59306;SDS011;47983;53.016;-2.260;2023-04-25T14:55:54;6.15;;;3.05;;
59306;SDS011;47983;53.016;-2.260;2023-04-25T14:58:22;8.88;;;3.33;;
59306;SDS011;47983;53.016;-2.260;2023-04-25T15:00:50;6.90;;;3.28;;
59306;SDS011;47983;53.016;-2.260;2023-04-25T15:03:18;7.43;;;3.00;;
59306;SDS011;47983;53.016;-2.260;2023-04-25T15:05:47;9.82;;;2.90;;
59306;SDS011;47983;53.016;-2.260;2023-04-25T15:08:14;8.15;;;3.17;;
59306;SDS011;47983;53.016;-2.260;2023-04-25T15:10:45;7.70;;;4.30;;
59306;SDS011;47983;53.016;-2.260;2023-04-25T15:13:14;7.10;;;2.72;;
59306;SDS011;47983;53.016;-2.260;2023-04-25T15:15:42;5.47;;;3.05;;
59306;SDS011;47983;53.016;-2.260;2023-04-25T15:18:10;8.57;;;2.85;;
59306;SDS011;47983;53.016;-2.260;2023-04-25T15:20:38;6.30;;;3.10;;
59306;SDS011;47983;53.016;-2.260;2023-04-25T15:23:05;7.88;;;3.63;;
59306;SDS011;47983;53.016;-2.260;2023-04-25T15:25:33;6.80;;;2.85;;
59306;SDS011;47983;53.016;-2.260;2023-04-25T15:28:00;7.95;;;3.28;;
59306;SDS011;47983;53.016;-2.260;2023-04-25T15:30:28;8.10;;;3.30;;